sensor_id;sensor_type;location;lat;lon;timestamp;P1;durP1;ratioP1;P2;durP2;ratioP2
70543;SDS011;58097;48.364;-1.224;2022-08-20T00:02:01;19.58;;;6.13;;
70543;SDS011;58097;48.364;-1.224;2022-08-20T00:04:26;16.38;;;4.97;;
70543;SDS011;58097;48.364;-1.224;2022-08-20T00:06:52;21.73;;;5.47;;
70543;SDS011;58097;48.364;-1.224;2022-08-20T00:09:17;16.25;;;5.65;;
70543;SDS011;58097;48.364;-1.224;2022-08-20T00:11:43;14.68;;;4.72;;
70543;SDS011;58097;48.364;-1.224;2022-08-20T00:14:09;18.98;;;4.85;;
70543;SDS011;58097;48.364;-1.224;2022-08-20T00:16:35;17.63;;;4.70;;
70543;SDS011;58097;48.364;-1.224;2022-08-20T00:19:04;19.55;;;5.50;;
70543;SDS011;58097;48.364;-1.224;2022-08-20T00:21:31;21.77;;;5.18;;
70543;SDS011;58097;48.364;-1.224;2022-08-20T00:23:56;20.80;;;4.82;;
70543;SDS011;58097;48.364;-1.224;2022-08-20T00:26:23;16.95;;;5.00;;
70543;SDS011;58097;48.364;-1.224;2022-08-20T00:28:49;16.80;;;4.05;;
70543;SDS011;58097;48.364;-1.224;2022-08-20T00:31:16;11.05;;;4.40;;
70543;SDS011;58097;48.364;-1.224;2022-08-20T00:33:44;17.15;;;4.60;;
70543;SDS011;58097;48.364;-1.224;2022-08-20T00:36:11;14.55;;;4.22;;
70543;SDS011;58097;48.364;-1.224;2022-08-20T00:38:40;16.50;;;4.78;;
70543;SDS011;58097;48.364;-1.224;2022-08-20T00:41:07;14.50;;;3.78;;
70543;SDS011;58097;48.364;-1.224;2022-08-20T00:43:37;16.85;;;4.18;;
70543;SDS011;58097;48.364;-1.224;2022-08-20T00:46:07;18.38;;;4.05;;
70543;SDS011;58097;48.364;-1.224;2022-08-20T00:48:42;11.13;;;3.35;;
70543;SDS011;58097;48.364;-1.224;2022-08-20T00:54:11;15.95;;;3.75;;
70543;SDS011;58097;48.364;-1.224;2022-08-20T00:56:43;14.20;;;3.85;;
70543;SDS011;58097;48.364;-1.224;2022-08-20T00:59:29;14.90;;;4.82;;
70543;SDS011;58097;48.364;-1.224;2022-08-20T01:01:57;12.10;;;4.35;;
70543;SDS011;58097;48.364;-1.224;2022-08-20T01:04:27;17.15;;;4.13;;
70543;SDS011;58097;48.364;-1.224;2022-08-20T01:06:58;15.93;;;4.22;;
70543;SDS011;58097;48.364;-1.224;2022-08-20T01:09:25;16.00;;;4.25;;
70543;SDS011;58097;48.364;-1.224;2022-08-20T01:11:50;19.73;;;4.38;;
70543;SDS011;58097;48.364;-1.224;2022-08-20T01:14:17;16.25;;;4.00;;
70543;SDS011;58097;48.364;-1.224;2022-08-20T01:17:06;15.50;;;4.47;;
70543;SDS011;58097;48.364;-1.224;2022-08-20T01:28:37;14.13;;;3.10;;
70543;SDS011;58097;48.364;-1.224;2022-08-20T01:31:08;14.82;;;3.58;;
70543;SDS011;58097;48.364;-1.224;2022-08-20T01:33:38;12.30;;;3.58;;
70543;SDS011;58097;48.364;-1.224;2022-08-20T01:36:04;10.82;;;3.35;;
70543;SDS011;58097;48.364;-1.224;2022-08-20T01:38:31;12.95;;;3.45;;
70543;SDS011;58097;48.364;-1.224;2022-08-20T01:43:44;10.75;;;3.20;;
70543;SDS011;58097;48.364;-1.224;2022-08-20T01:46:10;10.40;;;3.00;;
70543;SDS011;58097;48.364;-1.224;2022-08-20T01:48:38;20.65;;;3.65;;
70543;SDS011;58097;48.364;-1.224;2022-08-20T01:51:07;20.77;;;3.67;;
70543;SDS011;58097;48.364;-1.224;2022-08-20T01:53:43;15.23;;;3.55;;
70543;SDS011;58097;48.364;-1.224;2022-08-20T01:56:13;14.50;;;3.33;;
70543;SDS011;58097;48.364;-1.224;2022-08-20T01:58:43;18.45;;;4.07;;
70543;SDS011;58097;48.364;-1.224;2022-08-20T02:04:02;8.13;;;2.67;;
70543;SDS011;58097;48.364;-1.224;2022-08-20T02:06:30;12.48;;;2.95;;
70543;SDS011;58097;48.364;-1.224;2022-08-20T02:08:58;14.35;;;4.35;;
70543;SDS011;58097;48.364;-1.224;2022-08-20T02:11:26;14.38;;;3.10;;
70543;SDS011;58097;48.364;-1.224;2022-08-20T02:13:54;13.52;;;3.38;;
70543;SDS011;58097;48.364;-1.224;2022-08-20T02:16:23;13.82;;;4.32;;
70543;SDS011;58097;48.364;-1.224;2022-08-20T02:18:56;14.20;;;3.53;;
70543;SDS011;58097;48.364;-1.224;2022-08-20T02:21:26;13.93;;;3.35;;
70543;SDS011;58097;48.364;-1.224;2022-08-20T02:23:54;17.15;;;4.10;;
70543;SDS011;58097;48.364;-1.224;2022-08-20T02:26:20;20.05;;;3.30;;
70543;SDS011;58097;48.364;-1.224;2022-08-20T02:28:47;16.98;;;4.03;;
70543;SDS011;58097;48.364;-1.224;2022-08-20T02:31:15;12.88;;;2.85;;
70543;SDS011;58097;48.364;-1.224;2022-08-20T02:33:42;13.30;;;2.63;;
70543;SDS011;58097;48.364;-1.224;2022-08-20T02:36:09;13.43;;;2.95;;
70543;SDS011;58097;48.364;-1.224;2022-08-20T02:38:37;16.10;;;3.75;;
70543;SDS011;58097;48.364;-1.224;2022-08-20T02:41:03;14.05;;;3.33;;
70543;SDS011;58097;48.364;-1.224;2022-08-20T02:43:29;16.38;;;3.60;;
70543;SDS011;58097;48.364;-1.224;2022-08-20T02:45:56;15.63;;;3.53;;
70543;SDS011;58097;48.364;-1.224;2022-08-20T02:48:23;11.88;;;3.10;;
70543;SDS011;58097;48.364;-1.224;2022-08-20T02:50:54;14.07;;;3.13;;
70543;SDS011;58097;48.364;-1.224;2022-08-20T02:53:23;8.30;;;2.38;;
70543;SDS011;58097;48.364;-1.224;2022-08-20T02:55:50;5.70;;;2.05;;
70543;SDS011;58097;48.364;-1.224;2022-08-20T02:58:16;7.25;;;2.10;;
70543;SDS011;58097;48.364;-1.224;2022-08-20T03:00:43;10.55;;;2.60;;
70543;SDS011;58097;48.364;-1.224;2022-08-20T03:03:09;9.27;;;2.55;;
70543;SDS011;58097;48.364;-1.224;2022-08-20T03:05:36;14.50;;;3.03;;
70543;SDS011;58097;48.364;-1.224;2022-08-20T03:08:04;12.43;;;3.58;;
70543;SDS011;58097;48.364;-1.224;2022-08-20T03:10:32;13.10;;;2.83;;
70543;SDS011;58097;48.364;-1.224;2022-08-20T03:13:00;10.52;;;2.00;;
70543;SDS011;58097;48.364;-1.224;2022-08-20T03:15:27;10.18;;;2.65;;
70543;SDS011;58097;48.364;-1.224;2022-08-20T03:17:54;12.30;;;3.33;;
70543;SDS011;58097;48.364;-1.224;2022-08-20T03:20:20;10.68;;;3.20;;
70543;SDS011;58097;48.364;-1.224;2022-08-20T03:22:47;11.88;;;2.85;;
70543;SDS011;58097;48.364;-1.224;2022-08-20T03:25:13;10.43;;;3.42;;
70543;SDS011;58097;48.364;-1.224;2022-08-20T03:27:40;14.07;;;3.13;;
70543;SDS011;58097;48.364;-1.224;2022-08-20T03:30:07;12.57;;;3.78;;
70543;SDS011;58097;48.364;-1.224;2022-08-20T03:32:35;10.60;;;2.92;;
70543;SDS011;58097;48.364;-1.224;2022-08-20T03:35:02;11.93;;;3.03;;
70543;SDS011;58097;48.364;-1.224;2022-08-20T03:37:31;9.10;;;3.03;;
70543;SDS011;58097;48.364;-1.224;2022-08-20T03:39:59;14.95;;;3.55;;
70543;SDS011;58097;48.364;-1.224;2022-08-20T03:42:24;15.70;;;4.78;;
70543;SDS011;58097;48.364;-1.224;2022-08-20T03:44:50;20.30;;;4.40;;
70543;SDS011;58097;48.364;-1.224;2022-08-20T03:47:16;11.85;;;4.43;;
70543;SDS011;58097;48.364;-1.224;2022-08-20T03:49:41;14.88;;;3.67;;
70543;SDS011;58097;48.364;-1.224;2022-08-20T03:52:07;14.10;;;3.88;;
70543;SDS011;58097;48.364;-1.224;2022-08-20T03:54:33;12.15;;;3.75;;
70543;SDS011;58097;48.364;-1.224;2022-08-20T03:56:59;14.05;;;4.10;;
70543;SDS011;58097;48.364;-1.224;2022-08-20T03:59:27;11.65;;;4.38;;
70543;SDS011;58097;48.364;-1.224;2022-08-20T04:01:57;12.35;;;4.40;;
70543;SDS011;58097;48.364;-1.224;2022-08-20T04:04:23;11.73;;;4.25;;
70543;SDS011;58097;48.364;-1.224;2022-08-20T04:06:49;10.35;;;3.97;;
70543;SDS011;58097;48.364;-1.224;2022-08-20T04:09:14;13.93;;;4.68;;
70543;SDS011;58097;48.364;-1.224;2022-08-20T04:11:40;11.07;;;4.43;;
70543;SDS011;58097;48.364;-1.224;2022-08-20T04:14:07;12.85;;;4.03;;
70543;SDS011;58097;48.364;-1.224;2022-08-20T04:16:34;13.32;;;4.53;;
70543;SDS011;58097;48.364;-1.224;2022-08-20T04:19:00;8.90;;;4.45;;
70543;SDS011;58097;48.364;-1.224;2022-08-20T04:21:27;18.98;;;5.15;;
70543;SDS011;58097;48.364;-1.224;2022-08-20T04:23:54;17.05;;;7.00;;
70543;SDS011;58097;48.364;-1.224;2022-08-20T04:26:20;19.95;;;6.78;;
70543;SDS011;58097;48.364;-1.224;2022-08-20T04:28:46;13.23;;;7.00;;
70543;SDS011;58097;48.364;-1.224;2022-08-20T04:31:11;14.85;;;6.55;;
70543;SDS011;58097;48.364;-1.224;2022-08-20T04:33:38;11.45;;;6.72;;
70543;SDS011;58097;48.364;-1.224;2022-08-20T04:36:03;14.50;;;6.72;;
70543;SDS011;58097;48.364;-1.224;2022-08-20T04:38:30;8.13;;;6.25;;
70543;SDS011;58097;48.364;-1.224;2022-08-20T04:40:56;11.32;;;6.03;;
70543;SDS011;58097;48.364;-1.224;2022-08-20T04:43:28;8.98;;;5.43;;
70543;SDS011;58097;48.364;-1.224;2022-08-20T04:45:58;11.82;;;5.40;;
70543;SDS011;58097;48.364;-1.224;2022-08-20T04:48:26;9.90;;;4.85;;
70543;SDS011;58097;48.364;-1.224;2022-08-20T04:50:53;6.97;;;4.45;;
70543;SDS011;58097;48.364;-1.224;2022-08-20T04:53:22;16.65;;;4.85;;
70543;SDS011;58097;48.364;-1.224;2022-08-20T04:55:51;12.60;;;4.50;;
70543;SDS011;58097;48.364;-1.224;2022-08-20T04:58:22;17.75;;;5.68;;
70543;SDS011;58097;48.364;-1.224;2022-08-20T05:00:52;15.52;;;5.35;;
70543;SDS011;58097;48.364;-1.224;2022-08-20T05:03:19;15.60;;;5.57;;
70543;SDS011;58097;48.364;-1.224;2022-08-20T05:05:46;15.15;;;4.65;;
70543;SDS011;58097;48.364;-1.224;2022-08-20T05:08:12;13.90;;;5.60;;
70543;SDS011;58097;48.364;-1.224;2022-08-20T05:10:39;20.92;;;5.68;;
70543;SDS011;58097;48.364;-1.224;2022-08-20T05:13:06;19.20;;;6.07;;
70543;SDS011;58097;48.364;-1.224;2022-08-20T05:15:33;19.30;;;6.13;;
70543;SDS011;58097;48.364;-1.224;2022-08-20T05:17:59;23.30;;;5.80;;
70543;SDS011;58097;48.364;-1.224;2022-08-20T05:20:29;21.60;;;5.13;;
70543;SDS011;58097;48.364;-1.224;2022-08-20T05:22:57;18.67;;;5.80;;
70543;SDS011;58097;48.364;-1.224;2022-08-20T05:25:23;24.60;;;5.93;;
70543;SDS011;58097;48.364;-1.224;2022-08-20T05:27:49;18.88;;;5.50;;
70543;SDS011;58097;48.364;-1.224;2022-08-20T05:32:46;21.77;;;6.53;;
70543;SDS011;58097;48.364;-1.224;2022-08-20T05:35:13;19.60;;;4.97;;
70543;SDS011;58097;48.364;-1.224;2022-08-20T05:37:39;15.82;;;5.10;;
70543;SDS011;58097;48.364;-1.224;2022-08-20T05:40:09;18.23;;;4.78;;
70543;SDS011;58097;48.364;-1.224;2022-08-20T05:42:36;17.48;;;4.82;;
70543;SDS011;58097;48.364;-1.224;2022-08-20T05:45:02;15.95;;;5.05;;
70543;SDS011;58097;48.364;-1.224;2022-08-20T05:47:29;12.35;;;4.85;;
70543;SDS011;58097;48.364;-1.224;2022-08-20T05:49:55;19.35;;;5.70;;
70543;SDS011;58097;48.364;-1.224;2022-08-20T05:52:21;17.27;;;4.88;;
70543;SDS011;58097;48.364;-1.224;2022-08-20T05:54:47;16.40;;;5.72;;
70543;SDS011;58097;48.364;-1.224;2022-08-20T05:57:15;14.90;;;5.15;;
70543;SDS011;58097;48.364;-1.224;2022-08-20T05:59:43;16.08;;;5.65;;
70543;SDS011;58097;48.364;-1.224;2022-08-20T06:02:08;20.67;;;6.05;;
70543;SDS011;58097;48.364;-1.224;2022-08-20T06:04:54;19.73;;;5.70;;
70543;SDS011;58097;48.364;-1.224;2022-08-20T06:07:19;18.60;;;5.93;;
70543;SDS011;58097;48.364;-1.224;2022-08-20T06:09:45;10.27;;;4.03;;
70543;SDS011;58097;48.364;-1.224;2022-08-20T06:12:10;13.40;;;4.30;;
70543;SDS011;58097;48.364;-1.224;2022-08-20T06:14:36;17.00;;;5.57;;
70543;SDS011;58097;48.364;-1.224;2022-08-20T06:17:03;18.90;;;4.97;;
70543;SDS011;58097;48.364;-1.224;2022-08-20T06:19:35;19.48;;;4.95;;
70543;SDS011;58097;48.364;-1.224;2022-08-20T06:22:01;19.23;;;6.20;;
70543;SDS011;58097;48.364;-1.224;2022-08-20T06:24:28;16.58;;;5.78;;
70543;SDS011;58097;48.364;-1.224;2022-08-20T06:26:54;19.60;;;5.90;;
70543;SDS011;58097;48.364;-1.224;2022-08-20T06:29:21;14.05;;;4.22;;
70543;SDS011;58097;48.364;-1.224;2022-08-20T06:31:46;13.57;;;4.97;;
70543;SDS011;58097;48.364;-1.224;2022-08-20T06:34:12;14.82;;;5.13;;
70543;SDS011;58097;48.364;-1.224;2022-08-20T06:36:37;20.10;;;5.68;;
70543;SDS011;58097;48.364;-1.224;2022-08-20T06:39:03;18.80;;;4.95;;
70543;SDS011;58097;48.364;-1.224;2022-08-20T06:41:28;13.43;;;4.25;;
70543;SDS011;58097;48.364;-1.224;2022-08-20T06:43:54;21.80;;;5.15;;
70543;SDS011;58097;48.364;-1.224;2022-08-20T06:46:20;14.60;;;4.28;;
70543;SDS011;58097;48.364;-1.224;2022-08-20T06:48:47;16.05;;;4.78;;
70543;SDS011;58097;48.364;-1.224;2022-08-20T06:51:13;19.35;;;5.38;;
70543;SDS011;58097;48.364;-1.224;2022-08-20T06:53:39;21.08;;;5.10;;
70543;SDS011;58097;48.364;-1.224;2022-08-20T06:56:05;16.25;;;5.10;;
70543;SDS011;58097;48.364;-1.224;2022-08-20T06:58:30;18.35;;;5.18;;
70543;SDS011;58097;48.364;-1.224;2022-08-20T07:00:56;20.33;;;4.70;;
70543;SDS011;58097;48.364;-1.224;2022-08-20T07:03:24;17.88;;;5.07;;
70543;SDS011;58097;48.364;-1.224;2022-08-20T07:05:50;16.67;;;4.68;;
70543;SDS011;58097;48.364;-1.224;2022-08-20T07:08:16;18.20;;;4.57;;
70543;SDS011;58097;48.364;-1.224;2022-08-20T07:10:46;16.60;;;4.22;;
70543;SDS011;58097;48.364;-1.224;2022-08-20T07:13:13;16.40;;;4.85;;
70543;SDS011;58097;48.364;-1.224;2022-08-20T07:15:40;22.33;;;4.07;;
70543;SDS011;58097;48.364;-1.224;2022-08-20T07:18:08;19.25;;;4.63;;
70543;SDS011;58097;48.364;-1.224;2022-08-20T07:20:35;24.95;;;5.50;;
70543;SDS011;58097;48.364;-1.224;2022-08-20T07:23:02;21.00;;;5.10;;
70543;SDS011;58097;48.364;-1.224;2022-08-20T07:25:28;15.02;;;4.32;;
70543;SDS011;58097;48.364;-1.224;2022-08-20T07:27:58;19.38;;;3.97;;
70543;SDS011;58097;48.364;-1.224;2022-08-20T07:30:26;19.85;;;4.30;;
70543;SDS011;58097;48.364;-1.224;2022-08-20T07:33:12;20.95;;;4.65;;
70543;SDS011;58097;48.364;-1.224;2022-08-20T07:35:38;18.52;;;4.13;;
70543;SDS011;58097;48.364;-1.224;2022-08-20T07:38:05;18.58;;;4.03;;
70543;SDS011;58097;48.364;-1.224;2022-08-20T07:40:33;27.13;;;4.25;;
70543;SDS011;58097;48.364;-1.224;2022-08-20T07:42:59;19.88;;;3.95;;
70543;SDS011;58097;48.364;-1.224;2022-08-20T07:45:27;19.75;;;3.85;;
70543;SDS011;58097;48.364;-1.224;2022-08-20T07:47:54;19.40;;;3.92;;
70543;SDS011;58097;48.364;-1.224;2022-08-20T07:50:30;17.45;;;3.60;;
70543;SDS011;58097;48.364;-1.224;2022-08-20T07:52:56;16.33;;;4.20;;
70543;SDS011;58097;48.364;-1.224;2022-08-20T07:55:24;20.20;;;4.38;;
70543;SDS011;58097;48.364;-1.224;2022-08-20T07:57:50;17.85;;;4.40;;
70543;SDS011;58097;48.364;-1.224;2022-08-20T08:00:17;18.95;;;4.15;;
70543;SDS011;58097;48.364;-1.224;2022-08-20T08:02:44;19.35;;;4.40;;
70543;SDS011;58097;48.364;-1.224;2022-08-20T08:05:10;23.05;;;4.43;;
70543;SDS011;58097;48.364;-1.224;2022-08-20T08:07:36;22.40;;;4.07;;
70543;SDS011;58097;48.364;-1.224;2022-08-20T08:10:04;24.00;;;4.65;;
70543;SDS011;58097;48.364;-1.224;2022-08-20T08:12:39;15.82;;;3.95;;
70543;SDS011;58097;48.364;-1.224;2022-08-20T08:15:10;17.67;;;4.38;;
70543;SDS011;58097;48.364;-1.224;2022-08-20T08:17:39;18.17;;;4.05;;
70543;SDS011;58097;48.364;-1.224;2022-08-20T08:20:08;21.13;;;5.25;;
70543;SDS011;58097;48.364;-1.224;2022-08-20T08:22:36;27.00;;;5.18;;
70543;SDS011;58097;48.364;-1.224;2022-08-20T08:25:03;17.65;;;4.22;;
70543;SDS011;58097;48.364;-1.224;2022-08-20T08:27:29;19.30;;;3.78;;
70543;SDS011;58097;48.364;-1.224;2022-08-20T08:29:59;23.30;;;4.85;;
70543;SDS011;58097;48.364;-1.224;2022-08-20T08:32:27;20.20;;;4.80;;
70543;SDS011;58097;48.364;-1.224;2022-08-20T08:34:55;18.77;;;3.95;;
70543;SDS011;58097;48.364;-1.224;2022-08-20T08:37:20;16.45;;;4.28;;
70543;SDS011;58097;48.364;-1.224;2022-08-20T08:39:46;22.95;;;3.95;;
70543;SDS011;58097;48.364;-1.224;2022-08-20T08:45:08;20.83;;;4.22;;
70543;SDS011;58097;48.364;-1.224;2022-08-20T08:47:35;20.55;;;4.15;;
70543;SDS011;58097;48.364;-1.224;2022-08-20T08:50:04;16.65;;;4.03;;
70543;SDS011;58097;48.364;-1.224;2022-08-20T08:52:32;15.00;;;3.53;;
70543;SDS011;58097;48.364;-1.224;2022-08-20T08:55:02;17.70;;;4.00;;
70543;SDS011;58097;48.364;-1.224;2022-08-20T08:57:31;20.13;;;3.55;;
70543;SDS011;58097;48.364;-1.224;2022-08-20T09:00:00;22.63;;;4.30;;
70543;SDS011;58097;48.364;-1.224;2022-08-20T09:02:32;20.10;;;4.50;;
70543;SDS011;58097;48.364;-1.224;2022-08-20T09:04:59;17.38;;;3.78;;
70543;SDS011;58097;48.364;-1.224;2022-08-20T09:07:29;16.85;;;4.05;;
70543;SDS011;58097;48.364;-1.224;2022-08-20T09:09:57;18.70;;;4.45;;
70543;SDS011;58097;48.364;-1.224;2022-08-20T09:12:23;18.08;;;3.78;;
70543;SDS011;58097;48.364;-1.224;2022-08-20T09:14:52;19.70;;;4.18;;
70543;SDS011;58097;48.364;-1.224;2022-08-20T09:17:19;19.42;;;4.10;;
70543;SDS011;58097;48.364;-1.224;2022-08-20T09:19:47;17.27;;;4.13;;
70543;SDS011;58097;48.364;-1.224;2022-08-20T09:22:17;11.30;;;3.28;;
70543;SDS011;58097;48.364;-1.224;2022-08-20T09:24:44;15.18;;;3.53;;
70543;SDS011;58097;48.364;-1.224;2022-08-20T09:27:11;15.48;;;3.80;;
70543;SDS011;58097;48.364;-1.224;2022-08-20T09:29:37;13.88;;;3.22;;
70543;SDS011;58097;48.364;-1.224;2022-08-20T09:32:11;12.63;;;2.75;;
70543;SDS011;58097;48.364;-1.224;2022-08-20T09:34:43;16.55;;;3.80;;
70543;SDS011;58097;48.364;-1.224;2022-08-20T09:37:16;16.70;;;3.50;;
70543;SDS011;58097;48.364;-1.224;2022-08-20T09:39:42;14.52;;;3.05;;
70543;SDS011;58097;48.364;-1.224;2022-08-20T09:42:08;8.38;;;2.65;;
70543;SDS011;58097;48.364;-1.224;2022-08-20T09:44:36;13.88;;;3.53;;
70543;SDS011;58097;48.364;-1.224;2022-08-20T09:47:02;14.18;;;2.92;;
70543;SDS011;58097;48.364;-1.224;2022-08-20T09:49:28;11.38;;;2.83;;
70543;SDS011;58097;48.364;-1.224;2022-08-20T09:51:54;12.70;;;3.05;;
70543;SDS011;58097;48.364;-1.224;2022-08-20T09:54:20;12.70;;;3.17;;
70543;SDS011;58097;48.364;-1.224;2022-08-20T09:56:46;15.77;;;3.08;;
70543;SDS011;58097;48.364;-1.224;2022-08-20T09:59:13;10.55;;;3.00;;
70543;SDS011;58097;48.364;-1.224;2022-08-20T10:01:42;13.35;;;2.97;;
70543;SDS011;58097;48.364;-1.224;2022-08-20T10:04:07;15.30;;;3.65;;
70543;SDS011;58097;48.364;-1.224;2022-08-20T10:06:37;15.25;;;2.88;;
70543;SDS011;58097;48.364;-1.224;2022-08-20T10:09:04;10.50;;;2.33;;
70543;SDS011;58097;48.364;-1.224;2022-08-20T10:11:30;18.17;;;3.33;;
70543;SDS011;58097;48.364;-1.224;2022-08-20T10:13:55;16.90;;;3.17;;
70543;SDS011;58097;48.364;-1.224;2022-08-20T10:16:21;10.70;;;2.83;;
70543;SDS011;58097;48.364;-1.224;2022-08-20T10:18:46;10.65;;;2.80;;
70543;SDS011;58097;48.364;-1.224;2022-08-20T10:21:13;12.20;;;2.53;;
70543;SDS011;58097;48.364;-1.224;2022-08-20T10:23:39;12.32;;;2.78;;
70543;SDS011;58097;48.364;-1.224;2022-08-20T10:26:07;14.65;;;3.47;;
70543;SDS011;58097;48.364;-1.224;2022-08-20T10:28:34;11.40;;;2.72;;
70543;SDS011;58097;48.364;-1.224;2022-08-20T10:31:00;17.25;;;3.70;;
70543;SDS011;58097;48.364;-1.224;2022-08-20T10:33:25;14.80;;;3.50;;
70543;SDS011;58097;48.364;-1.224;2022-08-20T10:35:51;12.88;;;2.97;;
70543;SDS011;58097;48.364;-1.224;2022-08-20T10:38:17;15.48;;;3.35;;
70543;SDS011;58097;48.364;-1.224;2022-08-20T10:40:42;15.57;;;3.08;;
70543;SDS011;58097;48.364;-1.224;2022-08-20T10:43:08;13.70;;;3.45;;
70543;SDS011;58097;48.364;-1.224;2022-08-20T10:45:34;11.25;;;3.08;;
70543;SDS011;58097;48.364;-1.224;2022-08-20T10:48:01;11.40;;;2.72;;
70543;SDS011;58097;48.364;-1.224;2022-08-20T10:50:27;15.07;;;3.20;;
70543;SDS011;58097;48.364;-1.224;2022-08-20T10:52:53;11.52;;;2.88;;
70543;SDS011;58097;48.364;-1.224;2022-08-20T10:55:18;15.07;;;3.10;;
70543;SDS011;58097;48.364;-1.224;2022-08-20T10:57:44;17.70;;;3.10;;
70543;SDS011;58097;48.364;-1.224;2022-08-20T11:00:12;14.85;;;3.28;;
70543;SDS011;58097;48.364;-1.224;2022-08-20T11:02:40;17.10;;;2.92;;
70543;SDS011;58097;48.364;-1.224;2022-08-20T11:05:06;14.02;;;3.28;;
70543;SDS011;58097;48.364;-1.224;2022-08-20T11:07:34;9.93;;;2.72;;
70543;SDS011;58097;48.364;-1.224;2022-08-20T11:10:02;12.32;;;3.20;;
70543;SDS011;58097;48.364;-1.224;2022-08-20T11:12:28;12.30;;;3.15;;
70543;SDS011;58097;48.364;-1.224;2022-08-20T11:14:54;17.48;;;3.03;;
70543;SDS011;58097;48.364;-1.224;2022-08-20T11:17:20;15.05;;;3.25;;
70543;SDS011;58097;48.364;-1.224;2022-08-20T11:19:54;14.02;;;3.22;;
70543;SDS011;58097;48.364;-1.224;2022-08-20T11:22:21;12.25;;;3.10;;
70543;SDS011;58097;48.364;-1.224;2022-08-20T11:24:47;11.27;;;2.85;;
70543;SDS011;58097;48.364;-1.224;2022-08-20T11:27:14;11.52;;;2.78;;
70543;SDS011;58097;48.364;-1.224;2022-08-20T11:30:04;12.75;;;2.95;;
70543;SDS011;58097;48.364;-1.224;2022-08-20T11:32:31;11.90;;;2.72;;
70543;SDS011;58097;48.364;-1.224;2022-08-20T11:34:56;11.50;;;2.70;;
70543;SDS011;58097;48.364;-1.224;2022-08-20T11:37:22;7.90;;;2.13;;
70543;SDS011;58097;48.364;-1.224;2022-08-20T11:39:49;13.02;;;2.83;;
70543;SDS011;58097;48.364;-1.224;2022-08-20T11:42:15;11.95;;;3.08;;
70543;SDS011;58097;48.364;-1.224;2022-08-20T11:44:40;14.10;;;2.65;;
70543;SDS011;58097;48.364;-1.224;2022-08-20T11:47:06;13.40;;;3.53;;
70543;SDS011;58097;48.364;-1.224;2022-08-20T11:49:44;9.73;;;2.90;;
70543;SDS011;58097;48.364;-1.224;2022-08-20T11:52:10;10.57;;;2.95;;
70543;SDS011;58097;48.364;-1.224;2022-08-20T11:54:35;13.02;;;3.00;;
70543;SDS011;58097;48.364;-1.224;2022-08-20T11:57:04;11.40;;;2.70;;
70543;SDS011;58097;48.364;-1.224;2022-08-20T11:59:30;13.50;;;3.38;;
70543;SDS011;58097;48.364;-1.224;2022-08-20T12:01:56;12.32;;;2.80;;
70543;SDS011;58097;48.364;-1.224;2022-08-20T12:04:22;10.52;;;2.70;;
70543;SDS011;58097;48.364;-1.224;2022-08-20T12:06:48;12.65;;;3.25;;
70543;SDS011;58097;48.364;-1.224;2022-08-20T12:09:14;12.45;;;2.80;;
70543;SDS011;58097;48.364;-1.224;2022-08-20T12:11:41;11.27;;;3.08;;
70543;SDS011;58097;48.364;-1.224;2022-08-20T12:14:07;15.32;;;2.85;;
70543;SDS011;58097;48.364;-1.224;2022-08-20T12:16:33;14.82;;;3.28;;
70543;SDS011;58097;48.364;-1.224;2022-08-20T12:18:58;16.75;;;2.50;;
70543;SDS011;58097;48.364;-1.224;2022-08-20T12:21:24;10.75;;;3.13;;
70543;SDS011;58097;48.364;-1.224;2022-08-20T12:23:50;10.48;;;2.58;;
70543;SDS011;58097;48.364;-1.224;2022-08-20T12:26:15;10.38;;;3.20;;
70543;SDS011;58097;48.364;-1.224;2022-08-20T12:28:41;10.63;;;2.45;;
70543;SDS011;58097;48.364;-1.224;2022-08-20T12:31:07;9.40;;;2.50;;
70543;SDS011;58097;48.364;-1.224;2022-08-20T12:33:33;9.48;;;2.28;;
70543;SDS011;58097;48.364;-1.224;2022-08-20T12:35:58;10.50;;;2.85;;
70543;SDS011;58097;48.364;-1.224;2022-08-20T12:38:24;8.95;;;2.58;;
70543;SDS011;58097;48.364;-1.224;2022-08-20T12:40:50;9.63;;;2.83;;
70543;SDS011;58097;48.364;-1.224;2022-08-20T12:43:15;14.43;;;2.80;;
70543;SDS011;58097;48.364;-1.224;2022-08-20T12:45:41;10.65;;;2.95;;
70543;SDS011;58097;48.364;-1.224;2022-08-20T12:48:08;15.98;;;3.33;;
70543;SDS011;58097;48.364;-1.224;2022-08-20T12:50:36;13.02;;;2.97;;
70543;SDS011;58097;48.364;-1.224;2022-08-20T12:53:04;11.07;;;2.72;;
70543;SDS011;58097;48.364;-1.224;2022-08-20T12:55:30;10.05;;;2.88;;
70543;SDS011;58097;48.364;-1.224;2022-08-20T12:57:58;8.60;;;2.40;;
70543;SDS011;58097;48.364;-1.224;2022-08-20T13:00:31;8.18;;;2.42;;
70543;SDS011;58097;48.364;-1.224;2022-08-20T13:03:00;14.32;;;3.00;;
70543;SDS011;58097;48.364;-1.224;2022-08-20T13:05:27;11.60;;;3.13;;
70543;SDS011;58097;48.364;-1.224;2022-08-20T13:07:54;16.60;;;3.28;;
70543;SDS011;58097;48.364;-1.224;2022-08-20T13:10:22;10.27;;;3.10;;
70543;SDS011;58097;48.364;-1.224;2022-08-20T13:12:51;10.00;;;2.80;;
70543;SDS011;58097;48.364;-1.224;2022-08-20T13:15:18;12.15;;;2.88;;
70543;SDS011;58097;48.364;-1.224;2022-08-20T13:17:44;11.45;;;3.03;;
70543;SDS011;58097;48.364;-1.224;2022-08-20T13:20:11;12.80;;;2.78;;
70543;SDS011;58097;48.364;-1.224;2022-08-20T13:22:38;11.68;;;2.88;;
70543;SDS011;58097;48.364;-1.224;2022-08-20T13:25:04;9.73;;;2.70;;
70543;SDS011;58097;48.364;-1.224;2022-08-20T13:27:31;9.10;;;2.50;;
70543;SDS011;58097;48.364;-1.224;2022-08-20T13:29:58;8.88;;;2.78;;
70543;SDS011;58097;48.364;-1.224;2022-08-20T13:32:23;12.75;;;2.83;;
70543;SDS011;58097;48.364;-1.224;2022-08-20T13:34:49;9.52;;;2.53;;
70543;SDS011;58097;48.364;-1.224;2022-08-20T13:37:16;14.85;;;3.03;;
70543;SDS011;58097;48.364;-1.224;2022-08-20T13:39:43;13.60;;;3.00;;
70543;SDS011;58097;48.364;-1.224;2022-08-20T13:42:09;11.95;;;2.95;;
70543;SDS011;58097;48.364;-1.224;2022-08-20T13:44:36;12.13;;;2.70;;
70543;SDS011;58097;48.364;-1.224;2022-08-20T13:49:57;10.98;;;2.90;;
70543;SDS011;58097;48.364;-1.224;2022-08-20T13:52:29;10.18;;;2.97;;
70543;SDS011;58097;48.364;-1.224;2022-08-20T13:54:57;10.27;;;2.50;;
70543;SDS011;58097;48.364;-1.224;2022-08-20T13:57:24;14.77;;;2.80;;
70543;SDS011;58097;48.364;-1.224;2022-08-20T13:59:54;12.88;;;2.78;;
70543;SDS011;58097;48.364;-1.224;2022-08-20T14:02:21;12.07;;;3.05;;
70543;SDS011;58097;48.364;-1.224;2022-08-20T14:04:47;9.63;;;2.30;;
70543;SDS011;58097;48.364;-1.224;2022-08-20T14:07:21;13.52;;;3.15;;
70543;SDS011;58097;48.364;-1.224;2022-08-20T14:09:52;10.88;;;2.70;;
70543;SDS011;58097;48.364;-1.224;2022-08-20T14:12:21;11.25;;;2.20;;
70543;SDS011;58097;48.364;-1.224;2022-08-20T14:14:47;8.75;;;2.25;;
70543;SDS011;58097;48.364;-1.224;2022-08-20T14:17:15;6.90;;;2.40;;
70543;SDS011;58097;48.364;-1.224;2022-08-20T14:19:46;9.30;;;2.38;;
70543;SDS011;58097;48.364;-1.224;2022-08-20T14:22:13;9.48;;;3.17;;
70543;SDS011;58097;48.364;-1.224;2022-08-20T14:24:42;10.02;;;2.95;;
70543;SDS011;58097;48.364;-1.224;2022-08-20T14:27:08;8.20;;;2.60;;
70543;SDS011;58097;48.364;-1.224;2022-08-20T14:29:36;9.90;;;2.80;;
70543;SDS011;58097;48.364;-1.224;2022-08-20T14:32:04;12.27;;;3.00;;
70543;SDS011;58097;48.364;-1.224;2022-08-20T14:34:30;13.32;;;3.28;;
70543;SDS011;58097;48.364;-1.224;2022-08-20T14:36:56;10.07;;;2.75;;
70543;SDS011;58097;48.364;-1.224;2022-08-20T14:39:32;8.85;;;2.40;;
70543;SDS011;58097;48.364;-1.224;2022-08-20T14:41:58;6.47;;;2.20;;
70543;SDS011;58097;48.364;-1.224;2022-08-20T14:44:23;8.52;;;2.58;;
70543;SDS011;58097;48.364;-1.224;2022-08-20T14:46:49;10.05;;;2.30;;
70543;SDS011;58097;48.364;-1.224;2022-08-20T14:49:14;8.23;;;3.00;;
70543;SDS011;58097;48.364;-1.224;2022-08-20T14:51:40;13.63;;;3.33;;